sensor_id;sensor_type;location;lat;lon;timestamp;temperature;humidity
76305;DHT22;65111;50.536;19.204;2022-11-20T00:01:15;-3269.80;89.90
76305;DHT22;65111;50.536;19.204;2022-11-20T00:03:41;-3269.80;89.70
76305;DHT22;65111;50.536;19.204;2022-11-20T00:06:11;-3270.00;89.30
76305;DHT22;65111;50.536;19.204;2022-11-20T00:08:38;-3269.90;89.10
76305;DHT22;65111;50.536;19.204;2022-11-20T00:11:07;-3270.00;88.60
76305;DHT22;65111;50.536;19.204;2022-11-20T00:13:34;-3269.90;88.10
76305;DHT22;65111;50.536;19.204;2022-11-20T00:16:05;-3269.80;88.00
76305;DHT22;65111;50.536;19.204;2022-11-20T00:18:33;-3269.70;87.60
76305;DHT22;65111;50.536;19.204;2022-11-20T00:21:12;-3269.80;87.70
76305;DHT22;65111;50.536;19.204;2022-11-20T00:23:35;-3269.70;87.50
76305;DHT22;65111;50.536;19.204;2022-11-20T00:26:04;-3269.70;87.40
76305;DHT22;65111;50.536;19.204;2022-11-20T00:28:30;-3269.60;87.50
76305;DHT22;65111;50.536;19.204;2022-11-20T00:31:05;-3269.60;87.20
76305;DHT22;65111;50.536;19.204;2022-11-20T00:33:32;-3269.50;87.60
76305;DHT22;65111;50.536;19.204;2022-11-20T00:36:10;-3269.50;88.10
76305;DHT22;65111;50.536;19.204;2022-11-20T00:38:37;-3269.50;88.30
76305;DHT22;65111;50.536;19.204;2022-11-20T00:41:06;-3269.50;88.70
76305;DHT22;65111;50.536;19.204;2022-11-20T00:43:33;-3269.50;88.50
76305;DHT22;65111;50.536;19.204;2022-11-20T00:46:01;-3269.50;89.00
76305;DHT22;65111;50.536;19.204;2022-11-20T00:48:47;-3269.60;88.20
76305;DHT22;65111;50.536;19.204;2022-11-20T00:51:16;-3269.60;88.20
76305;DHT22;65111;50.536;19.204;2022-11-20T00:53:43;-3269.50;88.00
76305;DHT22;65111;50.536;19.204;2022-11-20T00:56:11;-3269.50;88.00
76305;DHT22;65111;50.536;19.204;2022-11-20T00:58:40;-3269.50;88.50
76305;DHT22;65111;50.536;19.204;2022-11-20T01:01:12;-3269.50;88.20
76305;DHT22;65111;50.536;19.204;2022-11-20T01:03:41;-3269.50;88.70
76305;DHT22;65111;50.536;19.204;2022-11-20T01:06:28;-3269.50;89.30
76305;DHT22;65111;50.536;19.204;2022-11-20T01:08:57;-3269.70;89.50
76305;DHT22;65111;50.536;19.204;2022-11-20T01:11:34;-3269.60;89.50
76305;DHT22;65111;50.536;19.204;2022-11-20T01:13:57;-3269.60;89.80
76305;DHT22;65111;50.536;19.204;2022-11-20T01:16:27;-3269.60;90.20
76305;DHT22;65111;50.536;19.204;2022-11-20T01:18:55;-3269.70;89.90
76305;DHT22;65111;50.536;19.204;2022-11-20T01:21:25;-3269.70;90.10
76305;DHT22;65111;50.536;19.204;2022-11-20T01:23:52;-3269.80;90.60
76305;DHT22;65111;50.536;19.204;2022-11-20T01:26:21;-3269.80;90.80
76305;DHT22;65111;50.536;19.204;2022-11-20T01:28:48;-3269.80;90.70
76305;DHT22;65111;50.536;19.204;2022-11-20T01:31:32;-3269.80;90.50
76305;DHT22;65111;50.536;19.204;2022-11-20T01:34:01;-3269.80;90.30
76305;DHT22;65111;50.536;19.204;2022-11-20T01:36:30;-3269.90;90.20
76305;DHT22;65111;50.536;19.204;2022-11-20T01:38:59;-3269.90;89.90
76305;DHT22;65111;50.536;19.204;2022-11-20T01:41:27;-3269.80;89.70
76305;DHT22;65111;50.536;19.204;2022-11-20T01:44:15;-3269.80;89.90
76305;DHT22;65111;50.536;19.204;2022-11-20T01:46:57;-3269.80;89.90
76305;DHT22;65111;50.536;19.204;2022-11-20T01:49:34;-3269.70;89.50
76305;DHT22;65111;50.536;19.204;2022-11-20T01:57:19;-3269.70;90.00
76305;DHT22;65111;50.536;19.204;2022-11-20T01:59:51;-3269.70;89.80
76305;DHT22;65111;50.536;19.204;2022-11-20T02:02:16;-3269.70;89.70
76305;DHT22;65111;50.536;19.204;2022-11-20T02:04:43;-3269.70;89.90
76305;DHT22;65111;50.536;19.204;2022-11-20T02:07:10;-3269.70;90.30
76305;DHT22;65111;50.536;19.204;2022-11-20T02:09:37;-3269.70;90.30
76305;DHT22;65111;50.536;19.204;2022-11-20T02:12:04;-3269.70;90.40
76305;DHT22;65111;50.536;19.204;2022-11-20T02:14:31;-3269.80;90.20
76305;DHT22;65111;50.536;19.204;2022-11-20T02:16:57;-3269.70;90.20
76305;DHT22;65111;50.536;19.204;2022-11-20T02:19:28;-3269.80;90.40
76305;DHT22;65111;50.536;19.204;2022-11-20T02:24:32;-3269.80;90.80
76305;DHT22;65111;50.536;19.204;2022-11-20T02:27:15;-3269.80;91.20
76305;DHT22;65111;50.536;19.204;2022-11-20T02:30:00;-3269.80;91.20
76305;DHT22;65111;50.536;19.204;2022-11-20T02:32:31;-3269.80;91.00
76305;DHT22;65111;50.536;19.204;2022-11-20T02:34:58;-3269.70;91.50
76305;DHT22;65111;50.536;19.204;2022-11-20T02:37:30;-3269.80;91.10
76305;DHT22;65111;50.536;19.204;2022-11-20T02:39:56;-3269.80;90.70
76305;DHT22;65111;50.536;19.204;2022-11-20T02:42:23;-3269.80;90.90
76305;DHT22;65111;50.536;19.204;2022-11-20T02:44:49;-3269.60;90.30
76305;DHT22;65111;50.536;19.204;2022-11-20T02:47:15;-3269.60;90.30
76305;DHT22;65111;50.536;19.204;2022-11-20T02:49:42;-3269.60;90.20
76305;DHT22;65111;50.536;19.204;2022-11-20T02:52:08;-3269.60;90.00
76305;DHT22;65111;50.536;19.204;2022-11-20T02:54:34;-3269.60;89.80
76305;DHT22;65111;50.536;19.204;2022-11-20T02:57:01;-3269.50;90.00
76305;DHT22;65111;50.536;19.204;2022-11-20T02:59:27;-3269.40;90.10
76305;DHT22;65111;50.536;19.204;2022-11-20T03:01:53;-3269.40;90.10
76305;DHT22;65111;50.536;19.204;2022-11-20T03:04:20;-3269.40;89.60
76305;DHT22;65111;50.536;19.204;2022-11-20T03:06:46;-3269.30;89.50
76305;DHT22;65111;50.536;19.204;2022-11-20T03:09:13;-3269.30;89.60
76305;DHT22;65111;50.536;19.204;2022-11-20T03:11:39;-3269.30;89.60
76305;DHT22;65111;50.536;19.204;2022-11-20T03:14:05;-3269.30;89.30
76305;DHT22;65111;50.536;19.204;2022-11-20T03:16:32;-3269.20;89.00
76305;DHT22;65111;50.536;19.204;2022-11-20T03:18:59;-3269.10;88.90
76305;DHT22;65111;50.536;19.204;2022-11-20T03:21:25;-3269.10;88.60
76305;DHT22;65111;50.536;19.204;2022-11-20T03:23:54;-3269.10;88.70
76305;DHT22;65111;50.536;19.204;2022-11-20T03:26:23;-3269.00;88.60
76305;DHT22;65111;50.536;19.204;2022-11-20T03:28:52;-3268.90;89.00
76305;DHT22;65111;50.536;19.204;2022-11-20T03:31:21;-3269.00;89.40
76305;DHT22;65111;50.536;19.204;2022-11-20T03:33:48;-3269.10;89.50
76305;DHT22;65111;50.536;19.204;2022-11-20T03:36:16;-3269.10;89.30
76305;DHT22;65111;50.536;19.204;2022-11-20T03:38:43;-3269.20;89.10
76305;DHT22;65111;50.536;19.204;2022-11-20T03:41:17;-3269.20;89.80
76305;DHT22;65111;50.536;19.204;2022-11-20T03:43:40;-3269.20;89.50
76305;DHT22;65111;50.536;19.204;2022-11-20T03:46:07;-3269.30;89.00
76305;DHT22;65111;50.536;19.204;2022-11-20T03:48:34;-3269.30;89.40
76305;DHT22;65111;50.536;19.204;2022-11-20T03:51:23;-3269.30;89.40
76305;DHT22;65111;50.536;19.204;2022-11-20T03:53:52;-3269.40;89.20
76305;DHT22;65111;50.536;19.204;2022-11-20T03:56:25;-3269.40;89.00
76305;DHT22;65111;50.536;19.204;2022-11-20T03:58:49;-3269.30;88.70
76305;DHT22;65111;50.536;19.204;2022-11-20T04:01:21;-3269.30;88.90
76305;DHT22;65111;50.536;19.204;2022-11-20T04:03:48;-3269.30;88.90
76305;DHT22;65111;50.536;19.204;2022-11-20T04:06:21;-3269.20;89.20
76305;DHT22;65111;50.536;19.204;2022-11-20T04:08:48;-3269.20;88.90
76305;DHT22;65111;50.536;19.204;2022-11-20T04:11:19;-3269.20;88.90
76305;DHT22;65111;50.536;19.204;2022-11-20T04:13:51;-3269.10;88.90
76305;DHT22;65111;50.536;19.204;2022-11-20T04:16:19;-3269.10;88.80
76305;DHT22;65111;50.536;19.204;2022-11-20T04:18:45;-3269.00;88.50
76305;DHT22;65111;50.536;19.204;2022-11-20T04:21:12;-3269.00;88.60
76305;DHT22;65111;50.536;19.204;2022-11-20T04:23:39;-3268.90;88.40
76305;DHT22;65111;50.536;19.204;2022-11-20T04:26:10;-3268.90;88.60
76305;DHT22;65111;50.536;19.204;2022-11-20T04:28:38;-3268.90;89.00
76305;DHT22;65111;50.536;19.204;2022-11-20T04:31:07;-3268.90;89.60
76305;DHT22;65111;50.536;19.204;2022-11-20T04:33:34;-3269.00;90.30
76305;DHT22;65111;50.536;19.204;2022-11-20T04:36:07;-3269.10;89.90
76305;DHT22;65111;50.536;19.204;2022-11-20T04:38:34;-3269.10;90.30
76305;DHT22;65111;50.536;19.204;2022-11-20T04:41:02;-3269.30;90.60
76305;DHT22;65111;50.536;19.204;2022-11-20T04:43:30;-3269.30;90.80
76305;DHT22;65111;50.536;19.204;2022-11-20T04:45:57;-3269.30;90.70
76305;DHT22;65111;50.536;19.204;2022-11-20T04:48:25;-3269.30;90.90
76305;DHT22;65111;50.536;19.204;2022-11-20T04:50:52;-3269.50;90.80
76305;DHT22;65111;50.536;19.204;2022-11-20T04:53:19;-3269.40;90.60
76305;DHT22;65111;50.536;19.204;2022-11-20T04:55:46;-3269.40;90.40
76305;DHT22;65111;50.536;19.204;2022-11-20T04:58:13;-3269.40;90.20
76305;DHT22;65111;50.536;19.204;2022-11-20T05:00:39;-3269.50;90.50
76305;DHT22;65111;50.536;19.204;2022-11-20T05:03:06;-3269.50;90.20
76305;DHT22;65111;50.536;19.204;2022-11-20T05:05:35;-3269.50;90.50
76305;DHT22;65111;50.536;19.204;2022-11-20T05:08:02;-3269.60;90.30
76305;DHT22;65111;50.536;19.204;2022-11-20T05:10:28;-3269.60;90.80
76305;DHT22;65111;50.536;19.204;2022-11-20T05:12:54;-3269.60;91.00
76305;DHT22;65111;50.536;19.204;2022-11-20T05:15:21;-3269.70;90.90
76305;DHT22;65111;50.536;19.204;2022-11-20T05:17:52;-3269.80;90.90
76305;DHT22;65111;50.536;19.204;2022-11-20T05:20:16;-3269.70;91.20
76305;DHT22;65111;50.536;19.204;2022-11-20T05:22:43;-3269.80;91.10
76305;DHT22;65111;50.536;19.204;2022-11-20T05:25:10;-3269.80;91.00
76305;DHT22;65111;50.536;19.204;2022-11-20T05:27:37;-3269.80;90.80
76305;DHT22;65111;50.536;19.204;2022-11-20T05:30:05;-3269.80;90.30
76305;DHT22;65111;50.536;19.204;2022-11-20T05:32:32;-3269.80;90.30
76305;DHT22;65111;50.536;19.204;2022-11-20T05:34:58;-3269.80;90.00
76305;DHT22;65111;50.536;19.204;2022-11-20T05:37:24;-3269.80;90.90
76305;DHT22;65111;50.536;19.204;2022-11-20T05:39:51;-3269.80;91.50
76305;DHT22;65111;50.536;19.204;2022-11-20T05:42:17;-3269.80;90.70
76305;DHT22;65111;50.536;19.204;2022-11-20T05:45:04;-3269.70;89.80
76305;DHT22;65111;50.536;19.204;2022-11-20T05:47:34;-3269.70;89.70
76305;DHT22;65111;50.536;19.204;2022-11-20T05:50:01;-3269.60;89.30
76305;DHT22;65111;50.536;19.204;2022-11-20T05:52:30;-3269.60;89.10
76305;DHT22;65111;50.536;19.204;2022-11-20T05:54:57;-3269.40;88.90
76305;DHT22;65111;50.536;19.204;2022-11-20T05:57:23;-3269.30;88.80
76305;DHT22;65111;50.536;19.204;2022-11-20T05:59:50;-3269.30;88.70
76305;DHT22;65111;50.536;19.204;2022-11-20T06:02:16;-3269.10;88.70
76305;DHT22;65111;50.536;19.204;2022-11-20T06:04:43;-3269.10;88.70
76305;DHT22;65111;50.536;19.204;2022-11-20T06:07:09;-3269.00;88.90
76305;DHT22;65111;50.536;19.204;2022-11-20T06:09:36;-3269.00;89.20
76305;DHT22;65111;50.536;19.204;2022-11-20T06:12:02;-3269.10;89.50
76305;DHT22;65111;50.536;19.204;2022-11-20T06:14:29;-3269.20;89.90
76305;DHT22;65111;50.536;19.204;2022-11-20T06:16:55;-3269.30;89.40
76305;DHT22;65111;50.536;19.204;2022-11-20T06:19:22;-3269.30;89.10
76305;DHT22;65111;50.536;19.204;2022-11-20T06:21:48;-3269.30;89.00
76305;DHT22;65111;50.536;19.204;2022-11-20T06:24:17;-3269.40;88.90
76305;DHT22;65111;50.536;19.204;2022-11-20T06:26:44;-3269.50;89.30
76305;DHT22;65111;50.536;19.204;2022-11-20T06:29:11;-3269.50;89.30
76305;DHT22;65111;50.536;19.204;2022-11-20T06:31:37;-3269.60;89.10
76305;DHT22;65111;50.536;19.204;2022-11-20T06:34:04;-3269.70;89.00
76305;DHT22;65111;50.536;19.204;2022-11-20T06:36:32;-3269.70;89.20
76305;DHT22;65111;50.536;19.204;2022-11-20T06:38:59;-3269.80;89.00
76305;DHT22;65111;50.536;19.204;2022-11-20T06:41:25;-3269.90;88.70
76305;DHT22;65111;50.536;19.204;2022-11-20T06:43:52;-3270.00;88.50
76305;DHT22;65111;50.536;19.204;2022-11-20T06:46:19;-3270.00;88.80
76305;DHT22;65111;50.536;19.204;2022-11-20T06:48:46;-3270.30;89.60
76305;DHT22;65111;50.536;19.204;2022-11-20T06:51:13;-3270.40;89.70
76305;DHT22;65111;50.536;19.204;2022-11-20T06:53:40;-3270.70;89.90
76305;DHT22;65111;50.536;19.204;2022-11-20T06:56:07;-3271.10;90.70
76305;DHT22;65111;50.536;19.204;2022-11-20T06:58:34;-3271.30;90.00
76305;DHT22;65111;50.536;19.204;2022-11-20T07:01:03;-3271.50;89.50
76305;DHT22;65111;50.536;19.204;2022-11-20T07:03:30;-3271.80;89.50
76305;DHT22;65111;50.536;19.204;2022-11-20T07:05:58;-3272.00;89.00
76305;DHT22;65111;50.536;19.204;2022-11-20T07:08:25;-3272.30;89.40
76305;DHT22;65111;50.536;19.204;2022-11-20T07:10:52;-3272.80;89.70
76305;DHT22;65111;50.536;19.204;2022-11-20T07:13:18;-3273.60;89.40
76305;DHT22;65111;50.536;19.204;2022-11-20T07:15:44;-3274.10;88.50
76305;DHT22;65111;50.536;19.204;2022-11-20T07:18:11;-3274.90;87.50
76305;DHT22;65111;50.536;19.204;2022-11-20T07:20:37;-3275.50;87.10
76305;DHT22;65111;50.536;19.204;2022-11-20T07:23:03;-3276.10;86.60
76305;DHT22;65111;50.536;19.204;2022-11-20T07:25:29;-3276.10;86.90
76305;DHT22;65111;50.536;19.204;2022-11-20T07:28:00;-3276.60;86.50
76305;DHT22;65111;50.536;19.204;2022-11-20T07:30:27;0.00;85.90
76305;DHT22;65111;50.536;19.204;2022-11-20T07:32:55;0.20;86.00
76305;DHT22;65111;50.536;19.204;2022-11-20T07:35:23;0.40;84.80
76305;DHT22;65111;50.536;19.204;2022-11-20T07:37:50;0.70;85.30
76305;DHT22;65111;50.536;19.204;2022-11-20T07:40:17;0.80;85.00
76305;DHT22;65111;50.536;19.204;2022-11-20T07:42:48;0.90;83.00
76305;DHT22;65111;50.536;19.204;2022-11-20T07:45:14;0.40;82.90
76305;DHT22;65111;50.536;19.204;2022-11-20T07:47:41;0.30;82.20
76305;DHT22;65111;50.536;19.204;2022-11-20T07:50:08;0.70;82.80
76305;DHT22;65111;50.536;19.204;2022-11-20T07:52:35;0.90;83.00
76305;DHT22;65111;50.536;19.204;2022-11-20T07:55:01;1.30;83.00
76305;DHT22;65111;50.536;19.204;2022-11-20T07:57:27;3.00;84.00
76305;DHT22;65111;50.536;19.204;2022-11-20T07:59:54;4.70;82.10
76305;DHT22;65111;50.536;19.204;2022-11-20T08:02:20;6.10;80.00
76305;DHT22;65111;50.536;19.204;2022-11-20T08:04:46;7.10;73.10
76305;DHT22;65111;50.536;19.204;2022-11-20T08:07:12;7.60;70.60
76305;DHT22;65111;50.536;19.204;2022-11-20T08:09:39;8.10;65.50
76305;DHT22;65111;50.536;19.204;2022-11-20T08:12:06;8.50;57.20
76305;DHT22;65111;50.536;19.204;2022-11-20T08:14:50;9.20;56.70
76305;DHT22;65111;50.536;19.204;2022-11-20T08:17:17;9.90;54.10
76305;DHT22;65111;50.536;19.204;2022-11-20T08:19:43;10.80;52.50
76305;DHT22;65111;50.536;19.204;2022-11-20T08:22:09;11.50;48.90
76305;DHT22;65111;50.536;19.204;2022-11-20T08:24:36;12.50;50.00
76305;DHT22;65111;50.536;19.204;2022-11-20T08:27:02;13.50;49.60
76305;DHT22;65111;50.536;19.204;2022-11-20T08:29:28;14.50;49.00
76305;DHT22;65111;50.536;19.204;2022-11-20T08:31:55;15.30;42.90
76305;DHT22;65111;50.536;19.204;2022-11-20T08:34:21;15.30;42.60
76305;DHT22;65111;50.536;19.204;2022-11-20T08:36:47;15.20;43.20
76305;DHT22;65111;50.536;19.204;2022-11-20T08:39:14;15.70;43.30
76305;DHT22;65111;50.536;19.204;2022-11-20T08:41:40;16.50;40.60
76305;DHT22;65111;50.536;19.204;2022-11-20T08:44:07;16.80;40.10
76305;DHT22;65111;50.536;19.204;2022-11-20T08:46:38;17.00;41.30
76305;DHT22;65111;50.536;19.204;2022-11-20T08:49:09;17.60;39.10
76305;DHT22;65111;50.536;19.204;2022-11-20T08:51:35;17.70;38.40
76305;DHT22;65111;50.536;19.204;2022-11-20T08:54:02;17.80;37.20
76305;DHT22;65111;50.536;19.204;2022-11-20T08:56:29;18.00;38.40
76305;DHT22;65111;50.536;19.204;2022-11-20T08:58:55;18.40;38.10
76305;DHT22;65111;50.536;19.204;2022-11-20T09:01:22;18.80;37.30
76305;DHT22;65111;50.536;19.204;2022-11-20T09:03:49;19.30;36.90
76305;DHT22;65111;50.536;19.204;2022-11-20T09:06:16;19.30;36.60
76305;DHT22;65111;50.536;19.204;2022-11-20T09:08:42;19.30;35.60
76305;DHT22;65111;50.536;19.204;2022-11-20T09:11:09;19.60;36.40
76305;DHT22;65111;50.536;19.204;2022-11-20T09:13:36;19.40;35.10
76305;DHT22;65111;50.536;19.204;2022-11-20T09:16:07;19.10;35.80
76305;DHT22;65111;50.536;19.204;2022-11-20T09:18:35;19.10;35.40
76305;DHT22;65111;50.536;19.204;2022-11-20T09:21:08;19.10;35.40
76305;DHT22;65111;50.536;19.204;2022-11-20T09:23:35;19.20;34.90
76305;DHT22;65111;50.536;19.204;2022-11-20T09:26:03;19.00;35.10
76305;DHT22;65111;50.536;19.204;2022-11-20T09:28:30;18.90;35.60
76305;DHT22;65111;50.536;19.204;2022-11-20T09:30:57;19.40;35.80
76305;DHT22;65111;50.536;19.204;2022-11-20T09:33:23;19.80;34.80
76305;DHT22;65111;50.536;19.204;2022-11-20T09:35:49;19.80;34.60
76305;DHT22;65111;50.536;19.204;2022-11-20T09:38:16;19.70;34.20
76305;DHT22;65111;50.536;19.204;2022-11-20T09:41:01;19.90;34.70
76305;DHT22;65111;50.536;19.204;2022-11-20T09:43:57;20.50;34.60
76305;DHT22;65111;50.536;19.204;2022-11-20T09:52:01;21.60;33.30
76305;DHT22;65111;50.536;19.204;2022-11-20T09:54:31;22.00;33.00
76305;DHT22;65111;50.536;19.204;2022-11-20T09:57:09;22.10;32.60
76305;DHT22;65111;50.536;19.204;2022-11-20T10:02:16;21.10;33.20
76305;DHT22;65111;50.536;19.204;2022-11-20T10:04:43;20.70;33.50
76305;DHT22;65111;50.536;19.204;2022-11-20T10:07:16;20.20;33.90
76305;DHT22;65111;50.536;19.204;2022-11-20T10:09:44;19.70;34.40
76305;DHT22;65111;50.536;19.204;2022-11-20T10:18:05;17.50;36.10
76305;DHT22;65111;50.536;19.204;2022-11-20T10:26:16;15.70;36.80
76305;DHT22;65111;50.536;19.204;2022-11-20T10:31:36;12.90;40.60
76305;DHT22;65111;50.536;19.204;2022-11-20T10:34:12;12.10;41.30
76305;DHT22;65111;50.536;19.204;2022-11-20T10:36:54;11.00;42.90
76305;DHT22;65111;50.536;19.204;2022-11-20T10:39:36;10.50;43.80
76305;DHT22;65111;50.536;19.204;2022-11-20T10:42:08;10.20;44.60
76305;DHT22;65111;50.536;19.204;2022-11-20T10:44:33;9.70;45.80
76305;DHT22;65111;50.536;19.204;2022-11-20T10:47:19;9.40;46.50
76305;DHT22;65111;50.536;19.204;2022-11-20T10:49:50;8.90;47.40
76305;DHT22;65111;50.536;19.204;2022-11-20T10:52:36;8.70;48.20
76305;DHT22;65111;50.536;19.204;2022-11-20T11:00:35;7.50;50.80
76305;DHT22;65111;50.536;19.204;2022-11-20T11:03:01;7.10;52.30
76305;DHT22;65111;50.536;19.204;2022-11-20T11:05:50;6.60;53.60
76305;DHT22;65111;50.536;19.204;2022-11-20T11:08:18;6.70;54.10
76305;DHT22;65111;50.536;19.204;2022-11-20T11:10:56;7.80;51.90
76305;DHT22;65111;50.536;19.204;2022-11-20T11:13:30;9.40;49.70
76305;DHT22;65111;50.536;19.204;2022-11-20T11:15:57;10.30;47.30
76305;DHT22;65111;50.536;19.204;2022-11-20T11:18:30;10.20;47.30
76305;DHT22;65111;50.536;19.204;2022-11-20T11:20:57;9.60;48.00
76305;DHT22;65111;50.536;19.204;2022-11-20T11:23:29;8.90;49.50
76305;DHT22;65111;50.536;19.204;2022-11-20T11:25:59;8.20;51.10
76305;DHT22;65111;50.536;19.204;2022-11-20T11:28:26;7.40;52.00
76305;DHT22;65111;50.536;19.204;2022-11-20T11:30:54;7.00;53.40
76305;DHT22;65111;50.536;19.204;2022-11-20T11:33:24;6.60;55.10
76305;DHT22;65111;50.536;19.204;2022-11-20T11:35:53;6.30;55.70
76305;DHT22;65111;50.536;19.204;2022-11-20T11:38:29;6.40;56.10
76305;DHT22;65111;50.536;19.204;2022-11-20T11:40:56;6.60;56.30
76305;DHT22;65111;50.536;19.204;2022-11-20T11:43:26;7.40;55.20
76305;DHT22;65111;50.536;19.204;2022-11-20T11:51:38;12.70;45.70
76305;DHT22;65111;50.536;19.204;2022-11-20T11:54:11;13.40;44.10
76305;DHT22;65111;50.536;19.204;2022-11-20T11:56:34;13.80;43.30
76305;DHT22;65111;50.536;19.204;2022-11-20T11:59:04;14.30;42.60
76305;DHT22;65111;50.536;19.204;2022-11-20T12:04:14;14.50;40.80
76305;DHT22;65111;50.536;19.204;2022-11-20T12:06:42;13.50;42.30
76305;DHT22;65111;50.536;19.204;2022-11-20T12:09:10;12.20;44.60
76305;DHT22;65111;50.536;19.204;2022-11-20T12:11:58;10.70;46.30
76305;DHT22;65111;50.536;19.204;2022-11-20T12:14:38;9.80;48.30
76305;DHT22;65111;50.536;19.204;2022-11-20T12:17:07;9.30;49.40
76305;DHT22;65111;50.536;19.204;2022-11-20T12:19:34;9.20;50.10
76305;DHT22;65111;50.536;19.204;2022-11-20T12:25:08;9.40;50.00
76305;DHT22;65111;50.536;19.204;2022-11-20T12:30:22;8.20;51.90
76305;DHT22;65111;50.536;19.204;2022-11-20T12:36:13;8.50;51.60
76305;DHT22;65111;50.536;19.204;2022-11-20T12:41:51;8.50;51.90
76305;DHT22;65111;50.536;19.204;2022-11-20T12:45:03;7.70;53.40
76305;DHT22;65111;50.536;19.204;2022-11-20T12:52:57;4.50;61.70
76305;DHT22;65111;50.536;19.204;2022-11-20T13:00:56;4.60;63.50
76305;DHT22;65111;50.536;19.204;2022-11-20T13:03:42;5.40;61.80
76305;DHT22;65111;50.536;19.204;2022-11-20T13:06:18;5.50;60.80
76305;DHT22;65111;50.536;19.204;2022-11-20T13:08:52;5.70;60.60
76305;DHT22;65111;50.536;19.204;2022-11-20T13:11:39;5.70;60.10
76305;DHT22;65111;50.536;19.204;2022-11-20T13:14:12;5.60;59.50
76305;DHT22;65111;50.536;19.204;2022-11-20T13:19:39;4.40;62.70
76305;DHT22;65111;50.536;19.204;2022-11-20T13:22:08;3.70;65.30
76305;DHT22;65111;50.536;19.204;2022-11-20T13:24:35;3.00;66.80
76305;DHT22;65111;50.536;19.204;2022-11-20T13:29:43;2.20;70.50
76305;DHT22;65111;50.536;19.204;2022-11-20T13:32:16;1.70;71.40
76305;DHT22;65111;50.536;19.204;2022-11-20T13:34:57;1.60;73.00
76305;DHT22;65111;50.536;19.204;2022-11-20T13:42:43;0.80;75.10
76305;DHT22;65111;50.536;19.204;2022-11-20T13:45:23;0.70;75.70
76305;DHT22;65111;50.536;19.204;2022-11-20T13:47:51;0.70;76.50
76305;DHT22;65111;50.536;19.204;2022-11-20T13:50:18;0.70;77.30
76305;DHT22;65111;50.536;19.204;2022-11-20T13:55:23;0.40;77.90
76305;DHT22;65111;50.536;19.204;2022-11-20T14:00:45;0.10;79.60
76305;DHT22;65111;50.536;19.204;2022-11-20T14:03:18;0.10;79.30
76305;DHT22;65111;50.536;19.204;2022-11-20T14:06:01;0.00;79.90
76305;DHT22;65111;50.536;19.204;2022-11-20T14:08:47;-3276.70;80.30
76305;DHT22;65111;50.536;19.204;2022-11-20T14:11:17;-3276.70;80.80
76305;DHT22;65111;50.536;19.204;2022-11-20T14:14:13;-3276.60;81.60
76305;DHT22;65111;50.536;19.204;2022-11-20T14:16:35;-3276.40;81.80
76305;DHT22;65111;50.536;19.204;2022-11-20T14:27:37;-3275.90;82.70
76305;DHT22;65111;50.536;19.204;2022-11-20T14:30:05;-3275.80;83.50
76305;DHT22;65111;50.536;19.204;2022-11-20T14:32:34;-3275.60;83.30
76305;DHT22;65111;50.536;19.204;2022-11-20T14:35:06;-3275.60;83.50
76305;DHT22;65111;50.536;19.204;2022-11-20T14:37:33;-3275.70;83.90
76305;DHT22;65111;50.536;19.204;2022-11-20T14:40:00;-3275.80;84.40
76305;DHT22;65111;50.536;19.204;2022-11-20T14:42:28;-3276.00;83.40
76305;DHT22;65111;50.536;19.204;2022-11-20T14:44:57;-3276.20;83.20
76305;DHT22;65111;50.536;19.204;2022-11-20T14:47:29;-3276.30;83.20
76305;DHT22;65111;50.536;19.204;2022-11-20T14:49:57;-3276.40;82.70
76305;DHT22;65111;50.536;19.204;2022-11-20T14:52:27;-3276.60;82.40
76305;DHT22;65111;50.536;19.204;2022-11-20T14:54:57;-3276.50;82.10
76305;DHT22;65111;50.536;19.204;2022-11-20T14:57:32;-3276.40;82.40
76305;DHT22;65111;50.536;19.204;2022-11-20T15:02:43;-3276.60;82.60
76305;DHT22;65111;50.536;19.204;2022-11-20T15:05:10;-3276.30;83.00
76305;DHT22;65111;50.536;19.204;2022-11-20T15:07:39;-3276.60;82.60
76305;DHT22;65111;50.536;19.204;2022-11-20T15:10:10;-3276.60;82.80
76305;DHT22;65111;50.536;19.204;2022-11-20T15:13:01;-3276.60;82.80
76305;DHT22;65111;50.536;19.204;2022-11-20T15:15:10;-3276.30;83.00
76305;DHT22;65111;50.536;19.204;2022-11-20T15:17:39;-3276.10;83.30
76305;DHT22;65111;50.536;19.204;2022-11-20T15:20:09;-3276.10;83.50
76305;DHT22;65111;50.536;19.204;2022-11-20T15:22:36;-3275.90;84.20
76305;DHT22;65111;50.536;19.204;2022-11-20T15:25:17;-3275.70;83.80
76305;DHT22;65111;50.536;19.204;2022-11-20T15:27:45;-3275.50;84.40
76305;DHT22;65111;50.536;19.204;2022-11-20T15:30:14;-3275.60;84.60
76305;DHT22;65111;50.536;19.204;2022-11-20T15:32:41;-3275.80;84.40
76305;DHT22;65111;50.536;19.204;2022-11-20T15:35:09;-3275.60;84.10
76305;DHT22;65111;50.536;19.204;2022-11-20T15:37:36;-3275.80;84.50
76305;DHT22;65111;50.536;19.204;2022-11-20T15:40:03;-3275.80;84.80
76305;DHT22;65111;50.536;19.204;2022-11-20T15:42:30;-3275.70;84.10
76305;DHT22;65111;50.536;19.204;2022-11-20T15:44:56;-3275.80;84.20
76305;DHT22;65111;50.536;19.204;2022-11-20T15:47:25;-3275.90;84.80
76305;DHT22;65111;50.536;19.204;2022-11-20T15:49:52;-3275.90;84.60
76305;DHT22;65111;50.536;19.204;2022-11-20T15:52:18;-3275.70;84.30
76305;DHT22;65111;50.536;19.204;2022-11-20T15:54:45;-3275.90;84.40
76305;DHT22;65111;50.536;19.204;2022-11-20T15:57:11;-3275.70;85.00
76305;DHT22;65111;50.536;19.204;2022-11-20T15:59:39;-3275.90;85.20
76305;DHT22;65111;50.536;19.204;2022-11-20T16:02:11;-3275.70;84.70
76305;DHT22;65111;50.536;19.204;2022-11-20T16:04:38;-3275.70;85.80
76305;DHT22;65111;50.536;19.204;2022-11-20T16:07:05;-3275.90;85.30
76305;DHT22;65111;50.536;19.204;2022-11-20T16:09:31;-3276.00;85.60
76305;DHT22;65111;50.536;19.204;2022-11-20T16:11:58;-3276.00;85.60
76305;DHT22;65111;50.536;19.204;2022-11-20T16:14:28;-3276.00;85.40
76305;DHT22;65111;50.536;19.204;2022-11-20T16:17:13;-3275.80;85.50
76305;DHT22;65111;50.536;19.204;2022-11-20T16:19:39;-3276.10;85.70
76305;DHT22;65111;50.536;19.204;2022-11-20T16:22:05;-3276.20;85.60
76305;DHT22;65111;50.536;19.204;2022-11-20T16:24:32;-3276.10;85.40
76305;DHT22;65111;50.536;19.204;2022-11-20T16:26:58;-3276.20;85.10
76305;DHT22;65111;50.536;19.204;2022-11-20T16:29:24;-3276.20;85.20
76305;DHT22;65111;50.536;19.204;2022-11-20T16:31:51;-3276.10;85.20
76305;DHT22;65111;50.536;19.204;2022-11-20T16:34:17;-3276.40;85.10
76305;DHT22;65111;50.536;19.204;2022-11-20T16:36:44;-3276.40;84.90
76305;DHT22;65111;50.536;19.204;2022-11-20T16:39:11;-3276.30;85.00